Time;durP1;ratioP1;P1;durP2;ratioP2;P2;SDS_P1;SDS_P2;PMS_P1;PMS_P2;Temp;Humidity;BMP_temperature;BMP_pressure;BME280_temperature;BME280_humidity;BME280_pressure;Samples;Min_cycle;Max_cycle;Signal;HPM_P1;HPM_P2
2022/11/06 00:01:26;;;;;;;11.32;5.70;;;11.60;99.90;;;;;;4793782;29;20043;-70
2022/11/06 00:03:53;;;;;;;12.60;5.38;;;11.70;99.90;;;;;;4793815;29;20112;-70
2022/11/06 00:09:06;;;;;;;11.50;5.30;;;11.70;99.90;;;;;;4793975;29;20070;-70
2022/11/06 00:11:32;;;;;;;12.85;6.20;;;11.70;99.90;;;;;;4777653;30;20047;-70
2022/11/06 00:13:59;;;;;;;14.02;5.82;;;11.60;99.90;;;;;;4793681;29;20043;-71
2022/11/06 00:16:25;;;;;;;12.60;6.47;;;11.60;99.90;;;;;;4793889;29;20044;-70
2022/11/06 00:18:51;;;;;;;14.32;6.30;;;11.70;99.90;;;;;;4793667;29;20390;-70
2022/11/06 00:21:20;;;;;;;18.85;6.40;;;11.50;99.90;;;;;;4793522;29;20050;-71
2022/11/06 00:23:47;;;;;;;13.45;6.30;;;11.40;99.90;;;;;;4792607;30;20055;-70
2022/11/06 00:26:15;;;;;;;18.77;6.32;;;11.40;99.90;;;;;;4793087;30;20378;-70
2022/11/06 00:28:41;;;;;;;13.70;6.65;;;11.20;99.90;;;;;;4793466;29;20043;-70
2022/11/06 00:31:09;;;;;;;16.20;7.30;;;11.30;99.90;;;;;;4793364;29;20046;-70
2022/11/06 00:33:36;;;;;;;10.07;6.35;;;11.20;99.90;;;;;;4793341;29;20114;-70
2022/11/06 00:36:07;;;;;;;14.00;6.47;;;11.30;99.90;;;;;;4792418;30;20047;-70
2022/11/06 00:38:33;;;;;;;13.00;6.82;;;11.20;99.90;;;;;;4793265;29;20051;-70
2022/11/06 00:41:03;;;;;;;16.08;7.40;;;11.30;99.90;;;;;;4793152;29;20433;-71
2022/11/06 00:43:29;;;;;;;14.15;6.65;;;11.30;99.90;;;;;;4792507;30;20054;-70
2022/11/06 00:46:00;;;;;;;13.82;7.45;;;11.30;99.90;;;;;;4793346;29;20047;-70
2022/11/06 00:48:26;;;;;;;11.90;7.18;;;11.40;99.90;;;;;;4793287;29;20374;-70
2022/11/06 00:50:52;;;;;;;16.77;7.90;;;11.20;99.90;;;;;;4792071;29;20134;-70
2022/11/06 00:53:17;;;;;;;17.85;8.15;;;11.30;99.90;;;;;;4777106;30;20047;-70
2022/11/06 00:55:43;;;;;;;16.50;7.85;;;11.20;99.90;;;;;;4792864;29;20126;-70
2022/11/06 00:58:09;;;;;;;16.80;8.13;;;11.10;99.90;;;;;;4792256;30;20112;-70
2022/11/06 01:00:34;;;;;;;16.98;8.93;;;11.10;99.90;;;;;;4792823;29;20047;-70
2022/11/06 01:03:00;;;;;;;17.65;9.32;;;11.10;99.90;;;;;;4792353;29;20047;-70
2022/11/06 01:05:26;;;;;;;16.02;8.25;;;11.00;99.90;;;;;;4792693;29;20074;-70
2022/11/06 01:07:51;;;;;;;17.02;9.00;;;11.00;99.90;;;;;;4792580;29;20055;-70
2022/11/06 01:10:17;;;;;;;19.17;8.20;;;11.00;99.90;;;;;;4791738;30;20345;-70
2022/11/06 01:12:43;;;;;;;16.48;9.00;;;10.90;99.90;;;;;;4792615;29;20058;-70
2022/11/06 01:15:09;;;;;;;18.25;8.85;;;11.10;99.90;;;;;;4792832;29;20122;-71
2022/11/06 01:17:34;;;;;;;13.65;8.82;;;11.10;99.90;;;;;;4792492;29;20054;-71
2022/11/06 01:20:00;;;;;;;19.10;8.95;;;11.30;99.90;;;;;;4793454;29;20047;-70
2022/11/06 01:22:26;;;;;;;19.13;8.70;;;11.10;99.90;;;;;;4792351;29;20386;-70
2022/11/06 01:24:52;;;;;;;20.27;10.32;;;11.10;99.90;;;;;;4792654;29;20119;-70
2022/11/06 01:27:17;;;;;;;19.05;8.95;;;11.00;99.90;;;;;;4792662;29;20090;-70
2022/11/06 01:29:43;;;;;;;19.38;9.18;;;11.00;99.90;;;;;;4791589;30;20047;-70
2022/11/06 01:32:09;;;;;;;16.20;8.93;;;11.00;99.90;;;;;;4792332;29;20039;-71
2022/11/06 01:34:35;;;;;;;16.02;9.25;;;11.10;99.90;;;;;;4792469;29;20426;-70
2022/11/06 01:37:01;;;;;;;15.25;8.90;;;11.10;99.90;;;;;;4791332;30;20054;-70
2022/11/06 01:39:27;;;;;;;15.57;9.82;;;11.00;99.90;;;;;;4792321;29;20054;-70
2022/11/06 01:41:53;;;;;;;18.80;9.20;;;10.80;99.90;;;;;;4792341;29;20345;-70
2022/11/06 01:44:34;;;;;;;18.38;10.18;;;10.90;99.90;;;;;;4792317;29;20042;-70
2022/11/06 01:47:15;;;;;;;19.85;10.73;;;10.90;99.90;;;;;;4792069;29;20047;-70
2022/11/06 01:49:40;;;;;;;19.75;10.52;;;10.90;99.90;;;;;;4792403;29;20101;-70
2022/11/06 01:52:11;;;;;;;21.38;10.95;;;10.80;99.90;;;;;;4791921;29;20039;-70
2022/11/06 01:54:39;;;;;;;20.67;10.68;;;10.80;99.90;;;;;;4792179;29;20082;-70
2022/11/06 01:57:06;;;;;;;20.95;11.50;;;10.80;99.90;;;;;;4792056;29;20046;-70
2022/11/06 01:59:38;;;;;;;22.45;11.63;;;10.80;99.90;;;;;;4790853;30;20130;-70
2022/11/06 02:02:05;;;;;;;20.98;10.35;;;10.80;99.90;;;;;;4790875;30;20051;-70
2022/11/06 02:04:40;;;;;;;13.18;9.27;;;10.70;99.90;;;;;;4776087;30;20333;-70
2022/11/06 02:07:06;;;;;;;19.10;10.13;;;10.80;99.90;;;;;;4791632;29;20442;-70
2022/11/06 02:09:33;;;;;;;19.35;10.88;;;10.80;99.90;;;;;;4791740;29;20091;-70
2022/11/06 02:12:13;;;;;;;19.50;9.60;;;10.70;99.90;;;;;;4790504;30;20135;-70
2022/11/06 02:15:07;;;;;;;19.50;10.88;;;10.70;99.90;;;;;;4791644;29;20051;-70
2022/11/06 02:18:04;;;;;;;21.17;10.75;;;10.70;99.90;;;;;;4791523;29;20054;-71
2022/11/06 02:20:48;;;;;;;19.00;11.38;;;10.60;99.90;;;;;;4791460;29;20043;-70
2022/11/06 02:23:41;;;;;;;19.63;10.38;;;10.50;99.90;;;;;;4791742;29;20192;-70
2022/11/06 02:26:18;;;;;;;20.83;12.27;;;10.60;99.90;;;;;;4791636;29;20097;-71
2022/11/06 02:28:52;;;;;;;26.88;12.27;;;10.70;99.90;;;;;;4791320;29;20039;-71
2022/11/06 02:31:25;;;;;;;24.80;13.02;;;10.80;99.90;;;;;;4791184;29;20125;-71
2022/11/06 02:33:59;;;;;;;19.08;11.63;;;10.80;99.90;;;;;;4790828;30;20043;-70
2022/11/06 02:36:31;;;;;;;19.58;11.82;;;10.90;99.90;;;;;;4790823;29;20452;-70
2022/11/06 02:39:00;;;;;;;18.25;11.00;;;11.00;99.90;;;;;;4791495;29;20043;-70
2022/11/06 02:41:31;;;;;;;21.80;11.90;;;10.90;99.90;;;;;;4790291;30;20055;-70
2022/11/06 02:43:58;;;;;;;21.85;12.25;;;10.80;99.90;;;;;;4791205;29;20127;-70
2022/11/06 02:46:37;;;;;;;22.08;12.60;;;10.70;99.90;;;;;;4791555;29;20047;-70
2022/11/06 02:49:28;;;;;;;17.70;11.90;;;10.70;99.90;;;;;;4790133;30;20051;-70
2022/11/06 02:51:58;;;;;;;20.85;13.05;;;10.70;99.90;;;;;;4790435;30;20311;-70
2022/11/06 02:54:27;;;;;;;20.83;13.05;;;10.80;99.90;;;;;;4791493;29;20054;-70
2022/11/06 02:56:58;;;;;;;23.15;12.05;;;10.80;99.90;;;;;;4791226;29;20047;-70
2022/11/06 02:59:31;;;;;;;21.38;12.80;;;10.80;99.90;;;;;;4790621;30;20333;-70
2022/11/06 03:02:02;;;;;;;17.48;11.55;;;10.70;99.90;;;;;;4775067;30;20459;-70
2022/11/06 03:04:40;;;;;;;22.42;12.02;;;10.70;99.90;;;;;;4791465;29;20055;-71
2022/11/06 03:07:32;;;;;;;25.27;14.40;;;10.80;99.90;;;;;;4791050;29;20130;-70
2022/11/06 03:09:58;;;;;;;18.48;11.50;;;10.90;99.90;;;;;;4791085;29;20094;-70
2022/11/06 03:12:26;;;;;;;19.55;12.35;;;10.90;99.90;;;;;;4790905;29;20374;-70
2022/11/06 03:15:19;;;;;;;22.15;11.70;;;10.90;99.90;;;;;;4791011;29;20086;-70
2022/11/06 03:18:10;;;;;;;20.95;12.10;;;11.00;99.90;;;;;;4791438;29;20050;-70
2022/11/06 03:20:54;;;;;;;24.65;13.45;;;10.70;99.90;;;;;;4791039;29;20047;-71
2022/11/06 03:23:27;;;;;;;26.63;12.93;;;10.80;99.90;;;;;;4790946;29;20070;-70
2022/11/06 03:25:55;;;;;;;20.48;12.18;;;10.80;99.90;;;;;;4790031;30;20116;-70
2022/11/06 03:28:42;;;;;;;24.77;13.02;;;10.70;99.90;;;;;;4789941;30;20043;-70
2022/11/06 03:31:10;;;;;;;;;;;10.70;99.90;;;;;;4790552;29;20103;-71
2022/11/06 03:33:53;;;;;;;28.67;13.48;;;10.60;99.90;;;;;;4794070;29;19928;-70
2022/11/06 03:36:23;;;;;;;20.52;11.75;;;10.80;99.90;;;;;;4794550;29;20047;-70
2022/11/06 03:38:58;;;;;;;20.60;11.40;;;10.70;99.90;;;;;;4794473;29;20058;-70
2022/11/06 03:41:44;;;;;;;14.43;11.07;;;10.70;99.90;;;;;;4793970;29;20051;-70
2022/11/06 03:44:14;;;;;;;17.33;11.95;;;10.80;99.90;;;;;;4794345;29;20043;-70
2022/11/06 03:46:46;;;;;;;22.67;13.00;;;10.90;99.90;;;;;;4794152;29;20353;-70
2022/11/06 03:49:20;;;;;;;16.35;10.65;;;10.90;99.90;;;;;;4793949;29;20055;-70
2022/11/06 03:51:52;;;;;;;25.58;12.07;;;10.80;99.90;;;;;;4793058;30;20051;-70
2022/11/06 03:54:24;;;;;;;18.00;11.20;;;10.70;99.90;;;;;;4793895;29;20047;-70
2022/11/06 03:57:06;;;;;;;20.55;12.13;;;10.70;99.90;;;;;;4794110;29;20051;-70
2022/11/06 03:59:38;;;;;;;17.92;11.52;;;10.80;99.90;;;;;;4794111;29;20058;-70
2022/11/06 04:02:04;;;;;;;20.35;11.65;;;10.80;99.90;;;;;;4793650;29;20047;-70
2022/11/06 04:04:36;;;;;;;19.10;11.38;;;10.90;99.90;;;;;;4793160;30;20166;-70
2022/11/06 04:07:08;;;;;;;19.58;11.05;;;10.90;99.90;;;;;;4792552;30;20059;-70
2022/11/06 04:15:14;;;;;;;19.27;10.43;;;11.10;99.90;;;;;;4793838;29;20058;-70
2022/11/06 04:17:40;;;;;;;21.75;11.68;;;11.00;99.90;;;;;;4793929;29;20039;-70
2022/11/06 04:20:10;;;;;;;16.83;10.50;;;10.80;99.90;;;;;;4793650;29;20138;-70
2022/11/06 04:23:26;;;;;;;20.52;11.55;;;10.80;99.90;;;;;;4793543;29;20047;-70
2022/11/06 04:26:36;;;;;;;14.55;9.52;;;10.90;99.90;;;;;;4785430;29;20453;-71
2022/11/06 04:29:24;;;;;;;19.55;10.35;;;10.90;99.90;;;;;;4793306;29;20528;-70
2022/11/06 04:32:16;;;;;;;17.52;9.70;;;11.00;99.90;;;;;;4792171;29;20106;-70
2022/11/06 04:34:47;;;;;;;20.15;9.88;;;11.00;99.90;;;;;;4792758;30;20164;-70
2022/11/06 04:37:24;;;;;;;16.55;9.65;;;11.00;99.90;;;;;;4793421;29;20073;-70
2022/11/06 04:40:06;;;;;;;17.85;10.85;;;11.10;99.90;;;;;;4793630;29;20119;-74
2022/11/06 04:42:46;;;;;;;22.85;11.50;;;11.10;99.90;;;;;;4792085;29;20050;-70
2022/11/06 04:45:22;;;;;;;18.45;10.20;;;11.00;99.90;;;;;;4793471;29;20345;-70
2022/11/06 04:47:49;;;;;;;16.90;9.03;;;11.00;99.90;;;;;;4793315;29;20122;-70
2022/11/06 04:50:18;;;;;;;15.90;9.45;;;11.00;99.90;;;;;;4793067;29;20405;-70
2022/11/06 04:52:46;;;;;;;17.55;9.65;;;11.10;99.90;;;;;;4793283;29;20054;-70
2022/11/06 04:55:11;;;;;;;16.35;9.35;;;11.00;99.90;;;;;;4793262;29;20040;-70
2022/11/06 04:57:37;;;;;;;16.63;10.43;;;11.00;99.90;;;;;;4793067;29;20369;-70
2022/11/06 05:00:03;;;;;;;22.38;9.82;;;10.90;99.90;;;;;;4792902;29;20043;-70
2022/11/06 05:02:29;;;;;;;16.30;9.63;;;10.90;99.90;;;;;;4792781;29;20051;-70
2022/11/06 05:04:55;;;;;;;14.45;8.90;;;10.90;99.90;;;;;;4792098;30;20108;-70
2022/11/06 05:07:20;;;;;;;16.50;8.60;;;11.00;99.90;;;;;;4792606;29;20154;-70
2022/11/06 05:09:46;;;;;;;17.27;8.43;;;11.00;99.90;;;;;;4762082;30;20102;-70
2022/11/06 05:12:12;;;;;;;20.25;10.38;;;11.00;99.90;;;;;;4792863;29;20050;-71
2022/11/06 05:14:38;;;;;;;19.27;9.23;;;11.10;99.90;;;;;;4792786;29;20117;-70
2022/11/06 05:17:03;;;;;;;13.95;9.20;;;11.20;99.90;;;;;;4792572;29;20047;-70
2022/11/06 05:19:29;;;;;;;13.02;8.30;;;11.10;99.90;;;;;;4792571;29;20047;-70
2022/11/06 05:24:39;;;;;;;15.38;8.20;;;11.00;99.90;;;;;;4792782;29;20051;-70
2022/11/06 05:27:04;;;;;;;19.02;9.70;;;11.00;99.90;;;;;;4792360;29;20043;-70
2022/11/06 05:29:30;;;;;;;15.85;8.52;;;11.00;99.90;;;;;;4792546;29;20054;-70
2022/11/06 05:31:56;;;;;;;14.48;7.97;;;10.90;99.90;;;;;;4792231;29;20043;-70
2022/11/06 05:34:21;;;;;;;22.55;8.75;;;10.70;99.90;;;;;;4792274;29;20044;-70
2022/11/06 05:36:47;;;;;;;20.13;8.50;;;10.70;99.90;;;;;;4791480;30;20070;-70
2022/11/06 05:39:13;;;;;;;13.10;7.53;;;10.80;99.90;;;;;;4792076;29;20055;-71
2022/11/06 05:41:38;;;;;;;15.23;7.88;;;10.80;99.90;;;;;;4792463;29;20044;-70
2022/11/06 05:44:04;;;;;;;16.45;8.10;;;10.70;99.90;;;;;;4792199;29;20051;-70
2022/11/06 05:46:31;;;;;;;24.02;9.20;;;10.70;99.90;;;;;;4792270;29;20057;-70
2022/11/06 05:48:56;;;;;;;12.18;7.32;;;10.80;99.90;;;;;;4791929;29;20059;-70
2022/11/06 05:51:22;;;;;;;13.60;7.32;;;10.90;99.90;;;;;;4792214;29;20112;-70
2022/11/06 05:53:49;;;;;;;13.52;7.53;;;10.70;99.90;;;;;;4792080;29;20055;-70
2022/11/06 05:56:14;;;;;;;15.10;7.05;;;10.70;99.90;;;;;;4791481;29;20104;-70
2022/11/06 05:58:40;;;;;;;14.27;7.75;;;10.80;99.90;;;;;;4792178;29;20207;-70
2022/11/06 06:01:06;;;;;;;14.05;7.35;;;10.80;99.90;;;;;;4791790;29;20057;-70
2022/11/06 06:03:31;;;;;;;13.95;7.60;;;10.80;99.90;;;;;;4791808;29;20043;-70
2022/11/06 06:05:57;;;;;;;14.75;7.53;;;11.00;99.90;;;;;;4791846;29;20323;-70
2022/11/06 06:08:23;;;;;;;14.13;8.23;;;11.00;99.90;;;;;;4790655;30;20409;-70
2022/11/06 06:10:49;;;;;;;16.70;6.90;;;11.00;99.90;;;;;;4792102;29;20051;-70
2022/11/06 06:13:15;;;;;;;19.63;8.23;;;10.80;99.90;;;;;;4791577;29;20043;-70
2022/11/06 06:15:41;;;;;;;19.13;7.93;;;10.90;99.90;;;;;;4791697;29;20050;-70
2022/11/06 06:18:08;;;;;;;15.20;6.47;;;10.80;99.90;;;;;;4790599;30;20051;-71
2022/11/06 06:20:35;;;;;;;20.98;7.82;;;10.90;99.90;;;;;;4791831;29;20093;-70
2022/11/06 06:23:01;;;;;;;13.57;8.27;;;11.00;99.90;;;;;;4791680;29;20480;-70
2022/11/06 06:25:27;;;;;;;14.48;7.28;;;10.80;99.90;;;;;;4791658;29;20070;-70
2022/11/06 06:27:53;;;;;;;16.88;7.72;;;11.00;99.90;;;;;;4791409;29;20043;-70
2022/11/06 06:30:21;;;;;;;15.07;7.22;;;11.00;99.90;;;;;;4791617;29;20054;-70
2022/11/06 06:32:46;;;;;;;17.20;7.30;;;10.70;99.90;;;;;;4790895;29;20115;-73
2022/11/06 06:35:12;;;;;;;18.85;6.88;;;10.60;99.90;;;;;;4791545;29;20047;-71
2022/11/06 06:37:38;;;;;;;14.77;6.43;;;10.50;99.90;;;;;;4791690;29;20054;-70
2022/11/06 06:40:04;;;;;;;17.42;6.30;;;10.60;99.90;;;;;;4791258;29;20337;-70
2022/11/06 06:42:30;;;;;;;13.20;6.00;;;10.50;99.90;;;;;;4791473;29;20338;-70
2022/11/06 06:44:56;;;;;;;12.77;6.45;;;10.50;99.90;;;;;;4791282;29;20047;-70
2022/11/06 06:47:22;;;;;;;16.77;6.20;;;10.60;99.90;;;;;;4791413;29;20411;-70
2022/11/06 06:49:48;;;;;;;12.20;5.85;;;10.60;99.90;;;;;;4791014;29;20039;-70
2022/11/06 06:52:14;;;;;;;11.25;6.03;;;10.60;99.90;;;;;;4791400;29;20094;-71
2022/11/06 06:54:40;;;;;;;13.93;5.80;;;10.70;99.90;;;;;;4790355;30;20057;-73
2022/11/06 06:57:09;;;;;;;11.25;5.72;;;10.70;99.90;;;;;;4791348;29;20049;-70
2022/11/06 06:59:34;;;;;;;14.10;5.57;;;10.70;99.90;;;;;;4790203;30;20044;-76
2022/11/06 07:02:01;;;;;;;12.85;5.18;;;10.80;99.90;;;;;;4790813;29;20035;-70
2022/11/06 07:04:26;;;;;;;12.57;5.63;;;10.80;99.90;;;;;;4790166;30;20047;-70
2022/11/06 07:06:53;;;;;;;16.27;5.25;;;10.80;99.90;;;;;;4792034;29;20066;-70
2022/11/06 07:09:19;;;;;;;13.30;5.03;;;10.90;99.90;;;;;;4794995;29;20094;-70
2022/11/06 07:11:45;;;;;;;15.82;4.78;;;10.90;99.90;;;;;;4794804;29;20050;-71
2022/11/06 07:14:11;;;;;;;9.23;4.75;;;11.00;99.90;;;;;;4794960;29;20055;-71
2022/11/06 07:16:36;;;;;;;15.45;5.88;;;10.90;99.90;;;;;;4793731;30;20043;-70
2022/11/06 07:19:02;;;;;;;12.63;4.95;;;10.90;99.90;;;;;;4794886;29;20055;-70
2022/11/06 07:21:28;;;;;;;13.32;4.93;;;11.00;99.90;;;;;;4794479;29;20051;-70
2022/11/06 07:23:53;;;;;;;11.35;5.07;;;11.10;99.90;;;;;;4794704;29;20039;-70
2022/11/06 07:26:19;;;;;;;14.77;5.35;;;11.20;99.90;;;;;;4794674;29;20071;-70
2022/11/06 07:28:45;;;;;;;13.48;5.13;;;11.30;99.90;;;;;;4794609;29;20311;-70
2022/11/06 07:31:11;;;;;;;14.10;4.85;;;11.20;99.90;;;;;;4793597;30;20041;-70
2022/11/06 07:33:37;;;;;;;13.20;4.50;;;11.20;99.90;;;;;;4793037;30;20051;-70
2022/11/06 07:36:06;;;;;;;11.48;4.20;;;11.20;99.90;;;;;;4793581;30;20054;-70
2022/11/06 07:38:33;;;;;;;15.60;4.25;;;11.20;99.90;;;;;;4794570;29;20047;-70
2022/11/06 07:41:07;;;;;;;13.40;4.57;;;11.30;99.90;;;;;;4793381;30;20038;-70
2022/11/06 07:43:34;;;;;;;17.27;4.10;;;11.30;99.90;;;;;;4793320;30;20091;-70
2022/11/06 07:46:01;;;;;;;13.18;3.72;;;11.20;99.90;;;;;;4794317;29;20059;-70
2022/11/06 07:48:28;;;;;;;12.20;3.95;;;11.40;99.90;;;;;;4793961;29;20426;-70
2022/11/06 07:50:54;;;;;;;9.50;3.88;;;11.30;99.90;;;;;;4794113;29;20050;-70
2022/11/06 07:53:20;;;;;;;15.63;3.88;;;11.50;99.90;;;;;;4793498;30;20043;-70
2022/11/06 07:55:53;;;;;;;11.00;4.25;;;11.40;99.90;;;;;;4793103;30;20472;-70
2022/11/06 07:58:19;;;;;;;16.38;6.03;;;11.40;99.90;;;;;;4793445;30;20334;-70
2022/11/06 08:00:53;;;;;;;11.02;4.30;;;11.40;99.90;;;;;;4794027;29;20051;-70
2022/11/06 08:03:20;;;;;;;15.70;4.38;;;11.40;99.90;;;;;;4793488;29;20462;-70
2022/11/06 08:05:46;;;;;;;10.65;4.10;;;11.40;99.90;;;;;;4793997;29;20094;-69
2022/11/06 08:08:12;;;;;;;14.18;4.35;;;11.40;99.90;;;;;;4793753;29;20459;-70
2022/11/06 08:10:42;;;;;;;10.75;3.97;;;11.10;99.90;;;;;;4793654;29;20452;-70
2022/11/06 08:13:13;;;;;;;11.68;4.00;;;11.00;99.90;;;;;;4793889;29;20047;-70
2022/11/06 08:15:40;;;;;;;9.98;4.28;;;11.00;99.90;;;;;;4793636;29;20496;-70
2022/11/06 08:18:08;;;;;;;15.13;4.78;;;11.10;99.90;;;;;;4792751;29;20111;-70
2022/11/06 08:20:34;;;;;;;10.95;4.30;;;11.10;99.90;;;;;;4792820;30;20383;-70
2022/11/06 08:23:02;;;;;;;12.82;4.25;;;11.00;99.90;;;;;;4793542;29;20169;-73
2022/11/06 08:25:29;;;;;;;14.35;4.10;;;11.00;99.90;;;;;;4793519;29;20051;-70
2022/11/06 08:27:56;;;;;;;11.73;4.30;;;10.90;99.90;;;;;;4792736;30;20047;-70
2022/11/06 08:30:22;;;;;;;16.27;4.35;;;11.00;99.90;;;;;;4793530;29;20043;-70
2022/11/06 08:32:47;;;;;;;14.73;4.68;;;11.10;99.90;;;;;;4793063;29;20456;-70
2022/11/06 08:35:13;;;;;;;11.57;4.20;;;11.20;99.90;;;;;;4793310;29;20043;-70
2022/11/06 08:37:39;;;;;;;21.52;4.65;;;11.20;99.90;;;;;;4793411;29;20051;-71
2022/11/06 08:40:05;;;;;;;14.18;4.55;;;11.10;99.90;;;;;;4792653;30;20043;-70
2022/11/06 08:42:31;;;;;;;11.07;4.55;;;11.10;99.90;;;;;;4793347;29;20083;-70
2022/11/06 08:44:56;;;;;;;13.63;4.55;;;11.10;99.90;;;;;;4793345;29;20082;-70
2022/11/06 08:47:22;;;;;;;16.70;4.18;;;11.20;99.90;;;;;;4777117;30;20058;-70
2022/11/06 08:49:47;;;;;;;11.90;3.75;;;11.20;99.90;;;;;;4793083;29;20050;-70
2022/11/06 08:52:13;;;;;;;12.38;4.38;;;11.10;99.90;;;;;;4793066;29;20086;-71
2022/11/06 08:54:39;;;;;;;18.15;4.32;;;11.20;99.90;;;;;;4793252;29;20388;-70
2022/11/06 08:57:04;;;;;;;15.13;4.10;;;11.20;99.90;;;;;;4793018;29;20047;-70
2022/11/06 08:59:31;;;;;;;10.55;3.65;;;11.30;99.90;;;;;;4792936;29;20051;-70
2022/11/06 09:01:57;;;;;;;12.93;3.88;;;11.20;99.90;;;;;;4791959;30;20051;-70
2022/11/06 09:04:23;;;;;;;11.65;4.07;;;11.20;99.90;;;;;;4792974;29;20036;-70
2022/11/06 09:06:48;;;;;;;8.80;3.60;;;11.20;99.90;;;;;;4792842;29;20568;-71
2022/11/06 09:09:14;;;;;;;11.77;3.83;;;11.20;99.90;;;;;;4792642;29;20058;-70
2022/11/06 09:11:40;;;;;;;11.68;3.53;;;11.30;99.90;;;;;;4791803;30;20440;-70
2022/11/06 09:14:05;;;;;;;8.40;3.60;;;11.40;99.90;;;;;;4777050;30;20057;-70
2022/11/06 09:16:31;;;;;;;16.58;3.30;;;11.30;99.90;;;;;;4792792;29;20364;-70
2022/11/06 09:18:57;;;;;;;22.85;3.20;;;11.30;99.90;;;;;;4792647;29;20124;-70
2022/11/06 09:21:23;;;;;;;13.23;3.72;;;11.50;99.90;;;;;;4791729;30;20120;-70
2022/11/06 09:23:49;;;;;;;11.20;3.20;;;11.60;99.90;;;;;;4792431;29;20043;-70
2022/11/06 09:26:16;;;;;;;6.55;2.47;;;11.80;99.90;;;;;;4791574;30;20054;-69
2022/11/06 09:28:42;;;;;;;8.68;3.55;;;11.80;99.90;;;;;;4792246;29;20054;-69
2022/11/06 09:31:08;;;;;;;11.18;3.08;;;11.70;99.90;;;;;;4792482;29;20089;-69
2022/11/06 09:33:34;;;;;;;8.23;2.83;;;11.80;99.90;;;;;;4792208;29;20039;-71
2022/11/06 09:36:03;;;;;;;13.35;2.80;;;11.70;99.90;;;;;;4792346;29;20043;-69
2022/11/06 09:38:29;;;;;;;11.93;3.15;;;11.60;99.90;;;;;;4792464;29;20104;-69
2022/11/06 09:41:01;;;;;;;11.07;3.30;;;11.60;99.90;;;;;;4792456;29;20392;-69
2022/11/06 09:44:00;;;;;;;9.90;3.20;;;11.70;99.90;;;;;;4791487;30;20043;-69
2022/11/06 09:46:33;;;;;;;6.88;2.85;;;11.80;99.90;;;;;;4792384;29;20100;-70
2022/11/06 09:49:15;;;;;;;9.23;2.67;;;12.00;99.90;;;;;;4792212;29;20067;-70
2022/11/06 09:52:03;;;;;;;5.75;2.67;;;11.80;99.90;;;;;;4792389;29;20427;-69
2022/11/06 09:54:47;;;;;;;12.65;2.67;;;11.90;99.90;;;;;;4790837;30;20055;-69
2022/11/06 09:57:27;;;;;;;7.93;3.03;;;11.90;99.90;;;;;;4792023;29;20050;-69
2022/11/06 09:59:55;;;;;;;16.08;2.95;;;11.90;99.90;;;;;;4791897;29;20051;-68
2022/11/06 10:02:40;;;;;;;6.05;2.53;;;12.00;99.90;;;;;;4791499;29;20126;-69
2022/11/06 10:05:28;;;;;;;6.70;2.83;;;12.10;99.90;;;;;;4792244;29;20043;-69
2022/11/06 10:07:57;;;;;;;9.60;2.90;;;12.10;99.90;;;;;;4791824;29;20048;-69
2022/11/06 10:10:54;;;;;;;16.02;3.15;;;12.20;99.90;;;;;;4791715;29;20047;-69
2022/11/06 10:13:56;;;;;;;9.40;3.22;;;12.30;99.90;;;;;;4788486;30;20122;-69
2022/11/06 10:16:44;;;;;;;8.60;2.60;;;12.40;99.90;;;;;;4779881;30;20059;-69
2022/11/06 10:19:28;;;;;;;7.47;2.40;;;12.50;99.90;;;;;;4781165;29;20118;-69
2022/11/06 10:22:03;;;;;;;8.32;2.70;;;12.50;99.90;;;;;;4782312;30;20052;-69
2022/11/06 10:24:36;;;;;;;9.27;2.20;;;12.60;99.90;;;;;;4772247;30;20055;-69
2022/11/06 10:27:08;;;;;;;9.73;2.45;;;12.90;99.90;;;;;;4787747;30;20044;-69
2022/11/06 10:29:39;;;;;;;8.75;2.30;;;12.80;99.90;;;;;;4791046;29;20134;-70
2022/11/06 10:32:42;;;;;;;9.52;2.30;;;12.80;99.90;;;;;;4781624;29;20054;-69
2022/11/06 10:35:11;;;;;;;10.93;2.58;;;13.10;99.90;;;;;;4779573;29;20047;-69
2022/11/06 10:37:47;;;;;;;5.90;2.10;;;13.20;99.90;;;;;;4791245;30;20135;-70
2022/11/06 10:40:21;;;;;;;8.32;2.05;;;13.00;99.90;;;;;;4790153;29;20093;-69
2022/11/06 10:42:56;;;;;;;6.78;2.13;;;12.90;99.90;;;;;;4787104;29;20358;-69
2022/11/06 10:45:25;;;;;;;8.95;2.13;;;12.80;99.90;;;;;;4779986;30;20039;-69
2022/11/06 10:47:56;;;;;;;8.82;2.53;;;12.90;99.90;;;;;;4786445;30;20353;-69
2022/11/06 10:50:31;;;;;;;9.15;1.95;;;13.10;99.90;;;;;;4791138;29;20079;-69
2022/11/06 10:53:06;;;;;;;9.90;2.78;;;13.30;99.90;;;;;;4790901;29;20051;-69
2022/11/06 10:55:40;;;;;;;6.57;2.38;;;13.20;99.90;;;;;;4787871;29;20047;-69
2022/11/06 10:58:13;;;;;;;6.70;1.92;;;13.00;99.90;;;;;;4775437;30;20043;-69
2022/11/06 11:00:39;;;;;;;9.13;2.25;;;12.80;99.90;;;;;;4771040;30;20404;-69
2022/11/06 11:03:26;;;;;;;7.63;1.90;;;12.80;99.90;;;;;;4772708;30;20051;-69
2022/11/06 11:05:54;;;;;;;12.10;2.63;;;12.80;99.90;;;;;;4765857;30;20090;-69
2022/11/06 11:08:39;;;;;;;9.48;1.83;;;12.70;99.90;;;;;;4773147;30;20059;-68
2022/11/06 11:11:14;;;;;;;9.95;2.22;;;12.80;99.90;;;;;;4773301;30;20146;-68
2022/11/06 11:13:56;;;;;;;10.15;2.28;;;12.70;99.90;;;;;;4774270;30;20044;-69
2022/11/06 11:16:41;;;;;;;11.68;2.38;;;12.60;99.90;;;;;;4789764;30;20055;-68
2022/11/06 11:19:23;;;;;;;11.82;2.40;;;12.50;99.90;;;;;;4780110;29;20039;-68
2022/11/06 11:22:00;;;;;;;11.80;3.60;;;12.40;99.90;;;;;;4790874;30;20055;-69
2022/11/06 11:24:26;;;;;;;6.60;2.42;;;12.50;99.90;;;;;;4790819;29;20043;-68
2022/11/06 11:27:01;;;;;;;7.53;2.78;;;12.40;99.90;;;;;;4790834;29;20051;-68
2022/11/06 11:29:44;;;;;;;7.57;2.80;;;12.40;99.90;;;;;;4790719;29;20044;-68
2022/11/06 11:32:15;;;;;;;12.77;2.95;;;12.30;99.90;;;;;;4790481;30;20054;-68
2022/11/06 11:34:53;;;;;;;15.23;2.67;;;12.30;99.90;;;;;;4789863;30;20544;-68
2022/11/06 11:37:31;;;;;;;10.40;2.65;;;12.40;99.90;;;;;;4779688;30;20055;-68
2022/11/06 11:40:18;;;;;;;8.32;2.85;;;12.30;99.90;;;;;;4790885;29;20102;-69
2022/11/06 11:42:43;;;;;;;6.95;2.80;;;12.30;99.90;;;;;;4790919;29;20379;-69
2022/11/06 11:45:09;;;;;;;10.18;2.55;;;12.30;99.90;;;;;;4790874;29;20069;-70
2022/11/06 11:47:36;;;;;;;11.68;2.60;;;12.40;99.90;;;;;;4790394;29;20433;-70
2022/11/06 11:50:28;;;;;;;10.05;3.17;;;12.40;99.90;;;;;;4790593;29;20043;-70
2022/11/06 11:53:01;;;;;;;7.10;2.10;;;12.40;99.90;;;;;;4803499;29;20043;-69
2022/11/06 11:55:28;;;;;;;8.80;2.45;;;12.40;99.90;;;;;;4793860;29;20043;-69
2022/11/06 11:58:06;;;;;;;6.82;2.13;;;12.40;99.90;;;;;;4793247;29;20118;-74
2022/11/06 12:00:32;;;;;;;7.90;2.30;;;12.40;99.90;;;;;;4774711;30;20055;-70
2022/11/06 12:03:04;;;;;;;10.30;2.22;;;12.60;99.90;;;;;;4774411;30;20083;-69
2022/11/06 12:05:39;;;;;;;7.90;2.40;;;12.50;99.90;;;;;;4775662;30;20052;-69
2022/11/06 12:08:11;;;;;;;8.97;2.50;;;12.40;99.90;;;;;;4775264;30;20055;-69
2022/11/06 12:10:40;;;;;;;10.80;2.45;;;12.40;99.90;;;;;;4776826;30;20364;-70
2022/11/06 12:13:26;;;;;;;10.18;2.50;;;12.30;99.90;;;;;;4788498;29;20134;-70
2022/11/06 12:16:00;;;;;;;11.50;2.90;;;12.20;99.90;;;;;;4776219;30;20167;-68
2022/11/06 12:18:35;;;;;;;12.05;3.00;;;12.10;99.90;;;;;;4780385;30;20333;-69
2022/11/06 12:21:35;;;;;;;8.23;2.65;;;12.30;99.90;;;;;;4792592;30;20051;-69
2022/11/06 12:24:11;;;;;;;10.80;2.40;;;12.40;99.90;;;;;;4793133;29;20120;-69
2022/11/06 12:27:24;;;;;;;13.07;2.95;;;12.40;99.90;;;;;;4793588;29;20422;-69
2022/11/06 12:29:58;;;;;;;8.73;3.22;;;12.60;99.90;;;;;;4776573;30;20117;-68
2022/11/06 12:32:39;;;;;;;8.80;2.80;;;12.80;99.90;;;;;;4776133;30;20134;-69
2022/11/06 12:35:29;;;;;;;8.18;2.20;;;12.80;99.90;;;;;;4792466;30;20062;-69
2022/11/06 12:38:18;;;;;;;10.77;2.33;;;13.30;99.90;;;;;;4793440;30;20050;-69
2022/11/06 12:40:49;;;;;;;11.32;2.05;;;13.50;99.90;;;;;;4793127;30;20050;-69
2022/11/06 12:43:41;;;;;;;8.32;2.00;;;13.60;99.90;;;;;;4793079;29;20461;-69
2022/11/06 12:46:44;;;;;;;6.13;1.52;;;13.60;99.90;;;;;;4792495;30;20429;-69
2022/11/06 12:49:16;;;;;;;9.55;1.80;;;13.60;99.90;;;;;;4792935;29;20055;-69
2022/11/06 12:52:00;;;;;;;7.00;1.90;;;13.50;99.90;;;;;;4791952;30;20043;-69
2022/11/06 12:54:41;;;;;;;9.68;1.65;;;13.60;99.90;;;;;;4792484;29;20060;-74
2022/11/06 12:57:20;;;;;;;6.63;1.65;;;13.50;99.90;;;;;;4776752;30;20055;-70
2022/11/06 12:59:52;;;;;;;11.38;1.92;;;13.40;99.90;;;;;;4792581;29;20063;-69
2022/11/06 13:02:23;;;;;;;4.38;1.27;;;13.50;99.90;;;;;;4790809;30;20062;-69
2022/11/06 13:04:52;;;;;;;6.65;1.50;;;13.50;99.90;;;;;;4790910;29;20053;-69
2022/11/06 13:07:34;;;;;;;7.30;1.50;;;13.40;99.90;;;;;;4791984;29;20063;-69
2022/11/06 13:10:21;;;;;;;5.28;1.52;;;13.40;99.90;;;;;;4792424;30;20315;-69
2022/11/06 13:13:07;;;;;;;5.68;1.67;;;13.30;99.90;;;;;;4792428;29;20051;-69